sensor_id;sensor_type;location;lat;lon;timestamp;temperature;humidity
32839;DHT22;19182;41.820;12.808;2024-03-08T00:00:11;5.30;99.90
32839;DHT22;19182;41.820;12.808;2024-03-08T00:02:41;5.30;99.90
32839;DHT22;19182;41.820;12.808;2024-03-08T00:05:08;5.40;99.90
32839;DHT22;19182;41.820;12.808;2024-03-08T00:10:05;5.40;99.90
32839;DHT22;19182;41.820;12.808;2024-03-08T00:12:31;5.50;99.90
32839;DHT22;19182;41.820;12.808;2024-03-08T00:14:57;5.50;99.90
32839;DHT22;19182;41.820;12.808;2024-03-08T00:17:22;5.50;99.90
32839;DHT22;19182;41.820;12.808;2024-03-08T00:19:51;5.50;99.90
32839;DHT22;19182;41.820;12.808;2024-03-08T00:22:17;5.50;99.90
32839;DHT22;19182;41.820;12.808;2024-03-08T00:24:44;5.40;99.90
32839;DHT22;19182;41.820;12.808;2024-03-08T00:27:10;5.50;99.90
32839;DHT22;19182;41.820;12.808;2024-03-08T00:29:37;5.60;99.90
32839;DHT22;19182;41.820;12.808;2024-03-08T00:32:04;5.60;99.90
32839;DHT22;19182;41.820;12.808;2024-03-08T00:34:30;5.50;99.90
32839;DHT22;19182;41.820;12.808;2024-03-08T00:36:57;5.50;99.90
32839;DHT22;19182;41.820;12.808;2024-03-08T00:39:24;5.60;99.90
32839;DHT22;19182;41.820;12.808;2024-03-08T00:41:50;5.60;99.90
32839;DHT22;19182;41.820;12.808;2024-03-08T00:44:16;5.60;99.90
32839;DHT22;19182;41.820;12.808;2024-03-08T00:46:42;5.60;99.90
32839;DHT22;19182;41.820;12.808;2024-03-08T00:49:08;5.40;99.90
32839;DHT22;19182;41.820;12.808;2024-03-08T00:51:34;5.40;99.90
32839;DHT22;19182;41.820;12.808;2024-03-08T00:54:01;5.40;99.90
32839;DHT22;19182;41.820;12.808;2024-03-08T00:56:27;5.30;99.90
32839;DHT22;19182;41.820;12.808;2024-03-08T00:58:53;5.20;99.90
32839;DHT22;19182;41.820;12.808;2024-03-08T01:01:19;5.30;99.90
32839;DHT22;19182;41.820;12.808;2024-03-08T01:03:45;5.50;99.90
32839;DHT22;19182;41.820;12.808;2024-03-08T01:06:10;5.40;99.90
32839;DHT22;19182;41.820;12.808;2024-03-08T01:08:37;5.40;99.90
32839;DHT22;19182;41.820;12.808;2024-03-08T01:11:08;5.50;99.90
32839;DHT22;19182;41.820;12.808;2024-03-08T01:13:34;5.50;99.90
32839;DHT22;19182;41.820;12.808;2024-03-08T01:16:00;5.50;99.90
32839;DHT22;19182;41.820;12.808;2024-03-08T01:18:26;5.40;99.90
32839;DHT22;19182;41.820;12.808;2024-03-08T01:20:53;5.50;99.90
32839;DHT22;19182;41.820;12.808;2024-03-08T01:23:19;5.60;99.90
32839;DHT22;19182;41.820;12.808;2024-03-08T01:25:45;5.50;99.90
32839;DHT22;19182;41.820;12.808;2024-03-08T01:28:10;5.50;99.90
32839;DHT22;19182;41.820;12.808;2024-03-08T01:30:36;5.40;99.90
32839;DHT22;19182;41.820;12.808;2024-03-08T01:35:29;5.40;99.90
32839;DHT22;19182;41.820;12.808;2024-03-08T01:37:55;5.30;99.90
32839;DHT22;19182;41.820;12.808;2024-03-08T01:40:21;5.30;99.90
32839;DHT22;19182;41.820;12.808;2024-03-08T01:42:48;5.30;99.90
32839;DHT22;19182;41.820;12.808;2024-03-08T01:45:13;5.30;99.90
32839;DHT22;19182;41.820;12.808;2024-03-08T01:47:39;5.30;99.90
32839;DHT22;19182;41.820;12.808;2024-03-08T01:52:32;5.30;99.90
32839;DHT22;19182;41.820;12.808;2024-03-08T01:55:00;5.30;99.90
32839;DHT22;19182;41.820;12.808;2024-03-08T01:57:28;5.30;99.90
32839;DHT22;19182;41.820;12.808;2024-03-08T01:59:54;5.30;99.90
32839;DHT22;19182;41.820;12.808;2024-03-08T02:02:22;5.30;99.90
32839;DHT22;19182;41.820;12.808;2024-03-08T02:04:48;5.20;99.90
32839;DHT22;19182;41.820;12.808;2024-03-08T02:07:18;5.20;99.90
32839;DHT22;19182;41.820;12.808;2024-03-08T02:09:45;5.10;99.90
32839;DHT22;19182;41.820;12.808;2024-03-08T02:12:10;4.90;99.90
32839;DHT22;19182;41.820;12.808;2024-03-08T02:14:36;4.90;99.90
32839;DHT22;19182;41.820;12.808;2024-03-08T02:17:02;4.80;99.90
32839;DHT22;19182;41.820;12.808;2024-03-08T02:19:28;4.80;99.90
32839;DHT22;19182;41.820;12.808;2024-03-08T02:21:54;4.70;99.90
32839;DHT22;19182;41.820;12.808;2024-03-08T02:26:49;4.80;99.90
32839;DHT22;19182;41.820;12.808;2024-03-08T02:29:16;4.80;99.90
32839;DHT22;19182;41.820;12.808;2024-03-08T02:31:42;4.80;99.90
32839;DHT22;19182;41.820;12.808;2024-03-08T02:34:08;4.90;99.90
32839;DHT22;19182;41.820;12.808;2024-03-08T02:36:35;5.00;99.90
32839;DHT22;19182;41.820;12.808;2024-03-08T02:39:04;5.10;99.90
32839;DHT22;19182;41.820;12.808;2024-03-08T02:41:31;5.10;99.90
32839;DHT22;19182;41.820;12.808;2024-03-08T02:43:56;5.10;99.90
32839;DHT22;19182;41.820;12.808;2024-03-08T02:46:22;5.00;99.90
32839;DHT22;19182;41.820;12.808;2024-03-08T02:48:48;5.10;99.90
32839;DHT22;19182;41.820;12.808;2024-03-08T02:51:14;5.10;99.90
32839;DHT22;19182;41.820;12.808;2024-03-08T02:53:41;5.10;99.90
32839;DHT22;19182;41.820;12.808;2024-03-08T02:56:08;5.10;99.90
32839;DHT22;19182;41.820;12.808;2024-03-08T02:58:38;5.20;99.90
32839;DHT22;19182;41.820;12.808;2024-03-08T03:01:04;5.20;99.90
32839;DHT22;19182;41.820;12.808;2024-03-08T03:03:30;5.10;99.90
32839;DHT22;19182;41.820;12.808;2024-03-08T03:05:55;5.10;99.90
32839;DHT22;19182;41.820;12.808;2024-03-08T03:08:21;5.20;99.90
32839;DHT22;19182;41.820;12.808;2024-03-08T03:10:48;5.10;99.90
32839;DHT22;19182;41.820;12.808;2024-03-08T03:13:14;5.10;99.90
32839;DHT22;19182;41.820;12.808;2024-03-08T03:15:41;5.10;99.90
32839;DHT22;19182;41.820;12.808;2024-03-08T03:18:08;5.10;99.90
32839;DHT22;19182;41.820;12.808;2024-03-08T03:20:34;5.10;99.90
32839;DHT22;19182;41.820;12.808;2024-03-08T03:23:06;5.10;99.90
32839;DHT22;19182;41.820;12.808;2024-03-08T03:25:34;5.10;99.90
32839;DHT22;19182;41.820;12.808;2024-03-08T03:28:01;5.10;99.90
32839;DHT22;19182;41.820;12.808;2024-03-08T03:30:27;5.20;99.90
32839;DHT22;19182;41.820;12.808;2024-03-08T03:32:56;5.00;99.90
32839;DHT22;19182;41.820;12.808;2024-03-08T03:35:26;5.00;99.90
32839;DHT22;19182;41.820;12.808;2024-03-08T03:37:52;5.00;99.90
32839;DHT22;19182;41.820;12.808;2024-03-08T03:40:31;5.00;99.90
32839;DHT22;19182;41.820;12.808;2024-03-08T03:45:24;4.90;99.90
32839;DHT22;19182;41.820;12.808;2024-03-08T03:47:50;4.90;99.90
32839;DHT22;19182;41.820;12.808;2024-03-08T03:50:17;4.90;99.90
32839;DHT22;19182;41.820;12.808;2024-03-08T03:52:45;4.60;99.90
32839;DHT22;19182;41.820;12.808;2024-03-08T03:55:12;4.60;99.90
32839;DHT22;19182;41.820;12.808;2024-03-08T03:57:39;4.60;99.90
32839;DHT22;19182;41.820;12.808;2024-03-08T04:00:07;4.60;99.90
32839;DHT22;19182;41.820;12.808;2024-03-08T04:02:39;4.50;99.90
32839;DHT22;19182;41.820;12.808;2024-03-08T04:05:06;4.50;99.90
32839;DHT22;19182;41.820;12.808;2024-03-08T04:07:32;4.30;99.90
32839;DHT22;19182;41.820;12.808;2024-03-08T04:09:57;4.30;99.90
32839;DHT22;19182;41.820;12.808;2024-03-08T04:12:23;4.30;99.90
32839;DHT22;19182;41.820;12.808;2024-03-08T04:14:49;4.20;99.90
32839;DHT22;19182;41.820;12.808;2024-03-08T04:17:15;4.20;99.90
32839;DHT22;19182;41.820;12.808;2024-03-08T04:19:42;4.00;99.90
32839;DHT22;19182;41.820;12.808;2024-03-08T04:22:08;4.00;99.90
32839;DHT22;19182;41.820;12.808;2024-03-08T04:24:34;4.10;99.90
32839;DHT22;19182;41.820;12.808;2024-03-08T04:27:00;4.00;99.90
32839;DHT22;19182;41.820;12.808;2024-03-08T04:29:25;4.00;99.90
32839;DHT22;19182;41.820;12.808;2024-03-08T04:31:52;4.00;99.90
32839;DHT22;19182;41.820;12.808;2024-03-08T04:34:20;4.10;99.90
32839;DHT22;19182;41.820;12.808;2024-03-08T04:36:47;4.20;99.90
32839;DHT22;19182;41.820;12.808;2024-03-08T04:39:13;4.40;99.90
32839;DHT22;19182;41.820;12.808;2024-03-08T04:41:39;4.30;99.90
32839;DHT22;19182;41.820;12.808;2024-03-08T04:44:05;4.20;99.90
32839;DHT22;19182;41.820;12.808;2024-03-08T04:46:31;4.10;99.90
32839;DHT22;19182;41.820;12.808;2024-03-08T04:48:57;4.10;99.90
32839;DHT22;19182;41.820;12.808;2024-03-08T04:51:25;4.10;99.90
32839;DHT22;19182;41.820;12.808;2024-03-08T04:53:50;4.00;99.90
32839;DHT22;19182;41.820;12.808;2024-03-08T04:56:17;3.90;99.90
32839;DHT22;19182;41.820;12.808;2024-03-08T04:58:45;3.80;99.90
32839;DHT22;19182;41.820;12.808;2024-03-08T05:03:41;3.50;99.90
32839;DHT22;19182;41.820;12.808;2024-03-08T05:06:06;3.50;99.90
32839;DHT22;19182;41.820;12.808;2024-03-08T05:08:32;3.70;99.90
32839;DHT22;19182;41.820;12.808;2024-03-08T05:10:58;3.90;99.90
32839;DHT22;19182;41.820;12.808;2024-03-08T05:13:24;4.10;99.90
32839;DHT22;19182;41.820;12.808;2024-03-08T05:15:50;4.30;99.90
32839;DHT22;19182;41.820;12.808;2024-03-08T05:18:19;4.60;99.90
32839;DHT22;19182;41.820;12.808;2024-03-08T05:20:45;4.70;99.90
32839;DHT22;19182;41.820;12.808;2024-03-08T05:23:11;4.80;99.90
32839;DHT22;19182;41.820;12.808;2024-03-08T05:25:36;4.70;99.90
32839;DHT22;19182;41.820;12.808;2024-03-08T05:28:02;2.30;99.90
32839;DHT22;19182;41.820;12.808;2024-03-08T05:30:29;5.00;99.90
32839;DHT22;19182;41.820;12.808;2024-03-08T05:32:57;5.10;99.90
32839;DHT22;19182;41.820;12.808;2024-03-08T05:35:24;5.10;99.90
32839;DHT22;19182;41.820;12.808;2024-03-08T05:37:50;5.10;99.90
32839;DHT22;19182;41.820;12.808;2024-03-08T05:42:47;5.10;99.90
32839;DHT22;19182;41.820;12.808;2024-03-08T05:45:14;5.10;99.90
32839;DHT22;19182;41.820;12.808;2024-03-08T05:47:42;5.20;99.90
32839;DHT22;19182;41.820;12.808;2024-03-08T05:50:10;5.20;99.90
32839;DHT22;19182;41.820;12.808;2024-03-08T05:52:36;5.20;99.90
32839;DHT22;19182;41.820;12.808;2024-03-08T05:55:04;5.30;99.90
32839;DHT22;19182;41.820;12.808;2024-03-08T05:57:33;5.30;99.90
32839;DHT22;19182;41.820;12.808;2024-03-08T05:59:58;5.30;99.90
32839;DHT22;19182;41.820;12.808;2024-03-08T06:02:24;5.40;99.90
32839;DHT22;19182;41.820;12.808;2024-03-08T06:04:50;5.40;99.90
32839;DHT22;19182;41.820;12.808;2024-03-08T06:07:16;5.60;99.90
32839;DHT22;19182;41.820;12.808;2024-03-08T06:09:43;5.70;99.90
32839;DHT22;19182;41.820;12.808;2024-03-08T06:12:11;5.80;99.90
32839;DHT22;19182;41.820;12.808;2024-03-08T06:14:37;5.90;99.90
32839;DHT22;19182;41.820;12.808;2024-03-08T06:17:04;5.90;99.90
32839;DHT22;19182;41.820;12.808;2024-03-08T06:19:33;6.00;99.90
32839;DHT22;19182;41.820;12.808;2024-03-08T06:21:59;6.00;99.90
32839;DHT22;19182;41.820;12.808;2024-03-08T06:24:28;6.10;99.90
32839;DHT22;19182;41.820;12.808;2024-03-08T06:26:53;6.20;99.90
32839;DHT22;19182;41.820;12.808;2024-03-08T06:29:19;6.30;99.90
32839;DHT22;19182;41.820;12.808;2024-03-08T06:34:12;6.70;99.90
32839;DHT22;19182;41.820;12.808;2024-03-08T06:36:38;7.70;99.90
32839;DHT22;19182;41.820;12.808;2024-03-08T06:41:38;8.50;99.90
32839;DHT22;19182;41.820;12.808;2024-03-08T06:44:06;8.80;99.90
32839;DHT22;19182;41.820;12.808;2024-03-08T06:46:34;9.10;99.90
32839;DHT22;19182;41.820;12.808;2024-03-08T06:49:00;9.40;99.90
32839;DHT22;19182;41.820;12.808;2024-03-08T06:51:26;9.60;99.90
32839;DHT22;19182;41.820;12.808;2024-03-08T06:56:20;10.40;99.90
32839;DHT22;19182;41.820;12.808;2024-03-08T06:58:47;10.60;99.90
32839;DHT22;19182;41.820;12.808;2024-03-08T07:03:43;10.70;99.90
32839;DHT22;19182;41.820;12.808;2024-03-08T07:06:11;10.80;99.90
32839;DHT22;19182;41.820;12.808;2024-03-08T07:08:36;10.70;99.90
32839;DHT22;19182;41.820;12.808;2024-03-08T07:13:29;11.50;99.90
32839;DHT22;19182;41.820;12.808;2024-03-08T07:15:55;11.70;99.90
32839;DHT22;19182;41.820;12.808;2024-03-08T07:18:20;11.60;99.90
32839;DHT22;19182;41.820;12.808;2024-03-08T07:26:02;12.10;99.90
32839;DHT22;19182;41.820;12.808;2024-03-08T07:28:30;12.70;99.90
32839;DHT22;19182;41.820;12.808;2024-03-08T07:31:00;13.10;99.90
32839;DHT22;19182;41.820;12.808;2024-03-08T07:36:22;13.20;99.90
32839;DHT22;19182;41.820;12.808;2024-03-08T07:38:48;12.90;99.90
32839;DHT22;19182;41.820;12.808;2024-03-08T07:41:16;12.90;99.90
32839;DHT22;19182;41.820;12.808;2024-03-08T07:43:43;13.30;99.90
32839;DHT22;19182;41.820;12.808;2024-03-08T07:46:13;13.40;99.90
32839;DHT22;19182;41.820;12.808;2024-03-08T07:51:05;13.90;99.90
32839;DHT22;19182;41.820;12.808;2024-03-08T07:53:31;14.60;99.90
32839;DHT22;19182;41.820;12.808;2024-03-08T07:55:58;14.50;99.90
32839;DHT22;19182;41.820;12.808;2024-03-08T07:58:31;15.00;99.90
32839;DHT22;19182;41.820;12.808;2024-03-08T08:00:57;14.10;99.90
32839;DHT22;19182;41.820;12.808;2024-03-08T08:03:23;13.80;99.90
32839;DHT22;19182;41.820;12.808;2024-03-08T08:05:49;13.60;99.90
32839;DHT22;19182;41.820;12.808;2024-03-08T08:10:42;13.50;99.90
32839;DHT22;19182;41.820;12.808;2024-03-08T08:15:35;13.80;99.90
32839;DHT22;19182;41.820;12.808;2024-03-08T08:25:36;14.20;99.90
32839;DHT22;19182;41.820;12.808;2024-03-08T08:28:02;14.20;99.90
32839;DHT22;19182;41.820;12.808;2024-03-08T08:30:33;15.50;99.90
32839;DHT22;19182;41.820;12.808;2024-03-08T08:32:59;15.40;99.90
32839;DHT22;19182;41.820;12.808;2024-03-08T08:35:27;15.40;99.90
32839;DHT22;19182;41.820;12.808;2024-03-08T08:40:21;15.20;99.90
32839;DHT22;19182;41.820;12.808;2024-03-08T08:42:48;14.70;99.90
32839;DHT22;19182;41.820;12.808;2024-03-08T08:47:44;14.80;99.90
32839;DHT22;19182;41.820;12.808;2024-03-08T08:50:11;14.30;99.90
32839;DHT22;19182;41.820;12.808;2024-03-08T08:52:38;14.40;99.90
32839;DHT22;19182;41.820;12.808;2024-03-08T08:55:04;14.70;99.90
32839;DHT22;19182;41.820;12.808;2024-03-08T08:57:32;14.70;99.90
32839;DHT22;19182;41.820;12.808;2024-03-08T09:00:05;14.00;99.90
32839;DHT22;19182;41.820;12.808;2024-03-08T09:02:34;13.90;99.90
32839;DHT22;19182;41.820;12.808;2024-03-08T09:05:00;14.60;99.90
32839;DHT22;19182;41.820;12.808;2024-03-08T09:07:26;14.70;99.90
32839;DHT22;19182;41.820;12.808;2024-03-08T09:09:53;15.50;99.90
32839;DHT22;19182;41.820;12.808;2024-03-08T09:12:24;15.50;99.90
32839;DHT22;19182;41.820;12.808;2024-03-08T09:14:52;16.00;99.90
32839;DHT22;19182;41.820;12.808;2024-03-08T09:17:19;15.90;99.90
32839;DHT22;19182;41.820;12.808;2024-03-08T09:19:53;16.00;99.90
32839;DHT22;19182;41.820;12.808;2024-03-08T09:22:23;16.10;99.90
32839;DHT22;19182;41.820;12.808;2024-03-08T09:24:48;16.20;99.90
32839;DHT22;19182;41.820;12.808;2024-03-08T09:29:40;16.40;99.90
32839;DHT22;19182;41.820;12.808;2024-03-08T09:32:09;16.40;99.90
32839;DHT22;19182;41.820;12.808;2024-03-08T09:34:37;16.40;99.90
32839;DHT22;19182;41.820;12.808;2024-03-08T09:39:30;16.70;99.90
32839;DHT22;19182;41.820;12.808;2024-03-08T09:41:56;17.10;99.90
32839;DHT22;19182;41.820;12.808;2024-03-08T09:44:22;17.00;99.90
32839;DHT22;19182;41.820;12.808;2024-03-08T09:46:49;17.00;99.90
32839;DHT22;19182;41.820;12.808;2024-03-08T09:49:19;17.10;99.90
32839;DHT22;19182;41.820;12.808;2024-03-08T09:51:45;16.80;99.90
32839;DHT22;19182;41.820;12.808;2024-03-08T09:56:41;16.70;99.90
32839;DHT22;19182;41.820;12.808;2024-03-08T10:01:50;16.90;99.90
32839;DHT22;19182;41.820;12.808;2024-03-08T10:04:17;16.90;99.90
32839;DHT22;19182;41.820;12.808;2024-03-08T10:06:44;17.30;99.90
32839;DHT22;19182;41.820;12.808;2024-03-08T10:09:12;17.30;99.90
32839;DHT22;19182;41.820;12.808;2024-03-08T10:11:41;17.40;99.90
32839;DHT22;19182;41.820;12.808;2024-03-08T10:14:09;17.30;99.90
32839;DHT22;19182;41.820;12.808;2024-03-08T10:16:38;17.30;99.90
32839;DHT22;19182;41.820;12.808;2024-03-08T10:21:32;18.20;99.90
32839;DHT22;19182;41.820;12.808;2024-03-08T10:23:58;18.50;99.90
32839;DHT22;19182;41.820;12.808;2024-03-08T10:26:25;18.50;99.90
32839;DHT22;19182;41.820;12.808;2024-03-08T10:28:55;18.50;99.90
32839;DHT22;19182;41.820;12.808;2024-03-08T10:31:23;18.60;99.90
32839;DHT22;19182;41.820;12.808;2024-03-08T10:33:49;18.70;99.90
32839;DHT22;19182;41.820;12.808;2024-03-08T10:36:17;18.40;99.90
32839;DHT22;19182;41.820;12.808;2024-03-08T10:38:44;17.90;99.90
32839;DHT22;19182;41.820;12.808;2024-03-08T10:41:12;17.70;99.90
32839;DHT22;19182;41.820;12.808;2024-03-08T10:49:39;17.80;99.90
32839;DHT22;19182;41.820;12.808;2024-03-08T10:52:09;17.90;99.90
32839;DHT22;19182;41.820;12.808;2024-03-08T10:54:37;17.70;99.90
32839;DHT22;19182;41.820;12.808;2024-03-08T10:57:06;17.50;99.90
32839;DHT22;19182;41.820;12.808;2024-03-08T10:59:34;17.20;99.90
32839;DHT22;19182;41.820;12.808;2024-03-08T11:02:01;17.10;99.90
32839;DHT22;19182;41.820;12.808;2024-03-08T11:04:26;17.50;99.90
32839;DHT22;19182;41.820;12.808;2024-03-08T11:14:52;18.30;99.90
32839;DHT22;19182;41.820;12.808;2024-03-08T11:20:15;18.50;99.90
32839;DHT22;19182;41.820;12.808;2024-03-08T11:25:37;18.10;99.90
32839;DHT22;19182;41.820;12.808;2024-03-08T11:33:15;18.00;99.90
32839;DHT22;19182;41.820;12.808;2024-03-08T11:35:42;18.10;99.90
32839;DHT22;19182;41.820;12.808;2024-03-08T11:40:40;18.00;99.90
32839;DHT22;19182;41.820;12.808;2024-03-08T11:43:08;18.30;99.90
32839;DHT22;19182;41.820;12.808;2024-03-08T11:55:35;18.50;99.90
32839;DHT22;19182;41.820;12.808;2024-03-08T12:03:07;19.00;99.90
32839;DHT22;19182;41.820;12.808;2024-03-08T12:08:03;19.20;99.90
32839;DHT22;19182;41.820;12.808;2024-03-08T12:10:32;19.00;99.90
32839;DHT22;19182;41.820;12.808;2024-03-08T12:12:59;18.70;99.90
32839;DHT22;19182;41.820;12.808;2024-03-08T12:15:29;18.20;99.90
32839;DHT22;19182;41.820;12.808;2024-03-08T12:20:27;17.70;99.90
32839;DHT22;19182;41.820;12.808;2024-03-08T12:25:26;17.60;99.90
32839;DHT22;19182;41.820;12.808;2024-03-08T12:32:57;17.30;99.90
32839;DHT22;19182;41.820;12.808;2024-03-08T12:35:25;17.20;99.90
32839;DHT22;19182;41.820;12.808;2024-03-08T12:37:53;17.50;99.90
32839;DHT22;19182;41.820;12.808;2024-03-08T12:55:11;17.90;99.90
32839;DHT22;19182;41.820;12.808;2024-03-08T13:00:04;18.60;99.90
32839;DHT22;19182;41.820;12.808;2024-03-08T13:07:25;18.20;99.90
32839;DHT22;19182;41.820;12.808;2024-03-08T13:09:55;18.20;99.90
32839;DHT22;19182;41.820;12.808;2024-03-08T13:59:46;14.70;99.90
32839;DHT22;19182;41.820;12.808;2024-03-08T14:17:03;14.10;99.90
32839;DHT22;19182;41.820;12.808;2024-03-08T14:26:50;13.80;99.90
32839;DHT22;19182;41.820;12.808;2024-03-08T14:46:26;13.40;99.90
32839;DHT22;19182;41.820;12.808;2024-03-08T15:04:37;12.90;99.90
32839;DHT22;19182;41.820;12.808;2024-03-08T15:07:04;12.80;99.90
32839;DHT22;19182;41.820;12.808;2024-03-08T15:09:36;12.80;99.90
32839;DHT22;19182;41.820;12.808;2024-03-08T15:12:06;12.80;99.90
32839;DHT22;19182;41.820;12.808;2024-03-08T15:45:36;12.20;99.90
32839;DHT22;19182;41.820;12.808;2024-03-08T16:50:29;11.20;99.90
32839;DHT22;19182;41.820;12.808;2024-03-08T17:10:27;11.10;99.90
32839;DHT22;19182;41.820;12.808;2024-03-08T17:12:55;11.00;99.90
32839;DHT22;19182;41.820;12.808;2024-03-08T17:17:55;11.00;99.90
32839;DHT22;19182;41.820;12.808;2024-03-08T17:22:52;11.20;99.90
32839;DHT22;19182;41.820;12.808;2024-03-08T17:25:24;11.10;99.90
32839;DHT22;19182;41.820;12.808;2024-03-08T17:30:27;11.30;99.90
32839;DHT22;19182;41.820;12.808;2024-03-08T17:35:24;11.40;99.90
32839;DHT22;19182;41.820;12.808;2024-03-08T17:37:55;11.40;99.90
32839;DHT22;19182;41.820;12.808;2024-03-08T18:23:04;10.80;99.90
32839;DHT22;19182;41.820;12.808;2024-03-08T18:30:41;10.70;99.90
32839;DHT22;19182;41.820;12.808;2024-03-08T18:38:07;10.60;99.90
32839;DHT22;19182;41.820;12.808;2024-03-08T18:47:55;10.60;99.90
32839;DHT22;19182;41.820;12.808;2024-03-08T19:07:53;10.70;99.90
32839;DHT22;19182;41.820;12.808;2024-03-08T19:10:23;10.80;99.90
32839;DHT22;19182;41.820;12.808;2024-03-08T19:18:01;10.80;99.90
32839;DHT22;19182;41.820;12.808;2024-03-08T19:20:28;10.90;99.90
32839;DHT22;19182;41.820;12.808;2024-03-08T19:25:27;10.80;99.90
32839;DHT22;19182;41.820;12.808;2024-03-08T19:40:28;11.00;99.90
32839;DHT22;19182;41.820;12.808;2024-03-08T19:53:09;11.10;99.90
32839;DHT22;19182;41.820;12.808;2024-03-08T19:55:37;11.10;99.90
32839;DHT22;19182;41.820;12.808;2024-03-08T20:05:32;10.80;99.90
32839;DHT22;19182;41.820;12.808;2024-03-08T20:33:03;10.70;99.90
32839;DHT22;19182;41.820;12.808;2024-03-08T20:55:38;10.50;99.90
32839;DHT22;19182;41.820;12.808;2024-03-08T21:03:04;10.40;99.90
32839;DHT22;19182;41.820;12.808;2024-03-08T22:17:51;10.60;99.90
32839;DHT22;19182;41.820;12.808;2024-03-08T22:42:42;10.60;99.90
32839;DHT22;19182;41.820;12.808;2024-03-08T22:57:38;10.60;99.90
32839;DHT22;19182;41.820;12.808;2024-03-08T23:02:56;10.70;99.90
32839;DHT22;19182;41.820;12.808;2024-03-08T23:05:23;10.70;99.90
32839;DHT22;19182;41.820;12.808;2024-03-08T23:07:49;10.60;99.90
32839;DHT22;19182;41.820;12.808;2024-03-08T23:10:15;10.70;99.90
32839;DHT22;19182;41.820;12.808;2024-03-08T23:12:42;10.50;99.90
32839;DHT22;19182;41.820;12.808;2024-03-08T23:15:09;10.60;99.90
32839;DHT22;19182;41.820;12.808;2024-03-08T23:17:43;10.60;99.90
32839;DHT22;19182;41.820;12.808;2024-03-08T23:22:45;10.80;99.90
32839;DHT22;19182;41.820;12.808;2024-03-08T23:25:24;10.80;99.90
32839;DHT22;19182;41.820;12.808;2024-03-08T23:27:55;10.70;99.90
32839;DHT22;19182;41.820;12.808;2024-03-08T23:30:21;10.80;99.90
32839;DHT22;19182;41.820;12.808;2024-03-08T23:32:52;10.70;99.90
32839;DHT22;19182;41.820;12.808;2024-03-08T23:35:19;10.70;99.90
32839;DHT22;19182;41.820;12.808;2024-03-08T23:37:46;10.70;99.90
32839;DHT22;19182;41.820;12.808;2024-03-08T23:40:14;10.80;99.90
32839;DHT22;19182;41.820;12.808;2024-03-08T23:42:43;10.70;99.90
32839;DHT22;19182;41.820;12.808;2024-03-08T23:45:13;10.60;99.90
32839;DHT22;19182;41.820;12.808;2024-03-08T23:47:42;10.60;99.90
32839;DHT22;19182;41.820;12.808;2024-03-08T23:50:13;10.60;99.90
32839;DHT22;19182;41.820;12.808;2024-03-08T23:52:48;10.60;99.90
32839;DHT22;19182;41.820;12.808;2024-03-08T23:55:16;10.60;99.90
32839;DHT22;19182;41.820;12.808;2024-03-08T23:57:45;10.60;99.90
